GCLP/LPA METAR and TAF weather

Enter ICAO airport designator
Station Type Date Time Source
GCLP METAR 2021/07/26 16:00 UTC NOAA

GCLP 261600Z 02028KT 9999 FEW018 26/20 Q1015 NOSIG


Station Type Date Time Source
GCLP Decoded METAR 2021/07/26 16:00 UTC NOAA

Gran Canaria - Canary Islands, Spain (GCLP) 27-56N 015-23W 47M
Jul 26, 2021 - 12:00 PM EDT / 2021.07.26 1600 UTC
Wind: from the NNE (020 degrees) at 32 MPH (28 KT):0
Visibility: greater than 7 mile(s):0
Sky conditions: mostly clear
Temperature: 78 F (26 C)
Dew Point: 68 F (20 C)
Relative Humidity: 69%
Pressure (altimeter): 29.97 in. Hg (1015 hPa)
ob: GCLP 261600Z 02028KT 9999 FEW018 26/20 Q1015 NOSIG
cycle: 16

Station Type Date Time Source
GCLP TAF 2021/07/26 15:28 UTC NOAA

TAF GCLP 261400Z 2615/2715 01027KT 9999 SCT015 TX26/2714Z TN20/2706Z PROB40
TEMPO 2615/2622 01027G37KT PROB30
TEMPO 2712/2715 01022G32KT

Example: see airport list